Time;durP1;ratioP1;P1;durP2;ratioP2;P2;SDS_P1;SDS_P2;PMS_P1;PMS_P2;Temp;Humidity;BMP_temperature;BMP_pressure;BME280_temperature;BME280_humidity;BME280_pressure;Samples;Min_cycle;Max_cycle;Signal;HPM_P1;HPM_P2
2021/08/12 00:00:51;;;;;;;11.82;10.57;;;;;;;;;;1084788;54;20386;-83
2021/08/12 00:01:52;;;;;;;11.00;9.90;;;;;;;;;;1082876;54;20378;-83
2021/08/12 00:02:54;;;;;;;11.18;9.95;;;;;;;;;;1082357;47;20373;-84
2021/08/12 00:03:57;;;;;;;13.13;10.25;;;;;;;;;;1082008;54;20381;-84
2021/08/12 00:04:58;;;;;;;11.90;10.27;;;;;;;;;;1083394;54;20381;-84
2021/08/12 00:06:00;;;;;;;13.23;9.88;;;;;;;;;;1084050;47;20385;-85
2021/08/12 00:07:03;;;;;;;11.88;10.57;;;;;;;;;;1083560;54;20416;-84
2021/08/12 00:08:05;;;;;;;12.52;10.05;;;;;;;;;;1084093;54;20370;-84
2021/08/12 00:09:07;;;;;;;10.25;9.13;;;;;;;;;;1082074;47;21275;-84
2021/08/12 00:10:08;;;;;;;10.75;9.65;;;;;;;;;;1082057;54;20373;-84
2021/08/12 00:11:10;;;;;;;10.65;9.55;;;;;;;;;;1082651;39;20777;-84
2021/08/12 00:12:12;;;;;;;12.50;10.57;;;;;;;;;;1081835;47;20382;-84
2021/08/12 00:13:13;;;;;;;10.10;9.10;;;;;;;;;;1081866;47;21037;-83
2021/08/12 00:14:15;;;;;;;12.23;9.15;;;;;;;;;;1081395;47;20460;-83
2021/08/12 00:15:16;;;;;;;11.02;9.85;;;;;;;;;;1081711;47;20401;-84
2021/08/12 00:16:18;;;;;;;12.98;10.23;;;;;;;;;;1081515;47;20424;-83
2021/08/12 00:17:20;;;;;;;11.82;10.48;;;;;;;;;;1081446;47;20382;-83
2021/08/12 00:18:21;;;;;;;10.82;9.73;;;;;;;;;;1081546;54;20407;-84
2021/08/12 00:19:23;;;;;;;11.80;9.73;;;;;;;;;;1082135;54;20933;-84
2021/08/12 00:20:24;;;;;;;9.80;8.82;;;;;;;;;;1084200;54;20377;-83
2021/08/12 00:21:26;;;;;;;10.55;9.55;;;;;;;;;;1084802;54;20361;-83
2021/08/12 00:22:28;;;;;;;10.40;9.32;;;;;;;;;;1083208;54;20366;-84
2021/08/12 00:23:29;;;;;;;12.60;10.13;;;;;;;;;;1083471;47;20373;-84
2021/08/12 00:24:31;;;;;;;9.48;8.50;;;;;;;;;;1084823;39;20776;-84
2021/08/12 00:25:32;;;;;;;10.20;9.05;;;;;;;;;;1084888;54;20391;-84
2021/08/12 00:26:34;;;;;;;10.07;9.07;;;;;;;;;;1082131;47;20399;-83
2021/08/12 00:27:36;;;;;;;9.90;8.90;;;;;;;;;;1081295;54;20381;-84
2021/08/12 00:28:38;;;;;;;11.80;9.60;;;;;;;;;;1081971;47;20377;-83
2021/08/12 00:29:39;;;;;;;12.43;9.38;;;;;;;;;;1082038;47;20385;-84
2021/08/12 00:30:41;;;;;;;10.02;9.07;;;;;;;;;;1081712;54;20369;-84
2021/08/12 00:31:42;;;;;;;10.77;9.68;;;;;;;;;;1081129;54;20468;-83
2021/08/12 00:32:44;;;;;;;11.25;8.88;;;;;;;;;;1081800;54;20403;-84
2021/08/12 00:33:46;;;;;;;13.17;9.10;;;;;;;;;;1081658;47;20411;-84
2021/08/12 00:34:47;;;;;;;10.30;8.88;;;;;;;;;;1081327;54;20403;-84
2021/08/12 00:35:49;;;;;;;9.60;8.60;;;;;;;;;;1081589;47;20419;-84
2021/08/12 00:36:50;;;;;;;10.00;8.98;;;;;;;;;;1081423;54;20497;-84
2021/08/12 00:37:52;;;;;;;9.52;8.32;;;;;;;;;;1081672;47;20377;-84
2021/08/12 00:38:54;;;;;;;10.00;8.98;;;;;;;;;;1081448;54;21210;-84
2021/08/12 00:39:55;;;;;;;10.00;8.63;;;;;;;;;;1080304;54;20373;-83
2021/08/12 00:40:57;;;;;;;8.85;8.02;;;;;;;;;;1081785;39;20813;-85
2021/08/12 00:41:58;;;;;;;10.40;8.67;;;;;;;;;;1081411;47;20393;-84
2021/08/12 00:43:00;;;;;;;11.38;9.52;;;;;;;;;;1081479;39;21107;-84
2021/08/12 00:44:02;;;;;;;9.70;8.63;;;;;;;;;;1081359;47;20473;-84
2021/08/12 00:45:05;;;;;;;9.20;8.25;;;;;;;;;;1081533;39;20727;-84
2021/08/12 00:46:07;;;;;;;10.38;9.38;;;;;;;;;;1081595;39;20805;-84
2021/08/12 00:47:09;;;;;;;9.52;8.55;;;;;;;;;;1081076;47;20945;-84
2021/08/12 00:48:11;;;;;;;12.40;9.63;;;;;;;;;;1081390;47;20385;-84
2021/08/12 00:49:12;;;;;;;9.70;8.63;;;;;;;;;;1081428;47;20439;-84
2021/08/12 00:50:14;;;;;;;10.27;9.23;;;;;;;;;;1081399;47;20373;-84
2021/08/12 00:51:16;;;;;;;11.48;9.43;;;;;;;;;;1081260;47;20369;-84
2021/08/12 00:52:18;;;;;;;12.80;9.27;;;;;;;;;;1081515;47;20477;-85
2021/08/12 00:53:20;;;;;;;10.15;8.35;;;;;;;;;;1084026;39;21233;-85
2021/08/12 00:54:21;;;;;;;11.10;8.68;;;;;;;;;;1085196;47;20361;-84
2021/08/12 00:55:24;;;;;;;11.20;8.45;;;;;;;;;;1085528;54;20354;-84
2021/08/12 00:56:26;;;;;;;14.20;9.27;;;;;;;;;;1085570;54;20383;-84
2021/08/12 00:57:28;;;;;;;10.23;9.18;;;;;;;;;;1085101;54;20373;-83
2021/08/12 00:58:32;;;;;;;10.43;9.43;;;;;;;;;;1085513;54;20369;-84
2021/08/12 00:59:37;;;;;;;11.15;8.88;;;;;;;;;;1086605;54;20381;-84
2021/08/12 01:00:38;;;;;;;13.85;9.55;;;;;;;;;;1087343;54;20384;-84
2021/08/12 01:01:40;;;;;;;10.80;8.93;;;;;;;;;;1088259;39;20820;-84
2021/08/12 01:02:42;;;;;;;8.90;7.97;;;;;;;;;;1086239;54;20384;-84
2021/08/12 01:03:43;;;;;;;13.55;8.75;;;;;;;;;;1085419;54;20479;-84
2021/08/12 01:04:48;;;;;;;11.05;8.70;;;;;;;;;;1085327;47;20425;-84
2021/08/12 01:05:54;;;;;;;11.10;9.65;;;;;;;;;;1084381;47;20381;-84
2021/08/12 01:07:22;;;;;;;9.77;8.77;;;;;;;;;;1082593;54;20366;-84
2021/08/12 01:08:45;;;;;;;11.10;8.50;;;;;;;;;;1083453;31;20896;-84
2021/08/12 01:10:09;;;;;;;12.83;9.50;;;;;;;;;;1082381;54;20532;-84
2021/08/12 01:11:28;;;;;;;9.57;8.68;;;;;;;;;;1081665;54;20473;-85
2021/08/12 01:12:33;;;;;;;10.57;8.65;;;;;;;;;;1081981;47;20472;-84
2021/08/12 01:13:54;;;;;;;14.05;9.20;;;;;;;;;;1081895;54;20373;-83
2021/08/12 01:15:00;;;;;;;9.45;8.43;;;;;;;;;;1081800;47;20381;-84
2021/08/12 01:16:04;;;;;;;9.15;8.18;;;;;;;;;;1081679;54;20350;-83
2021/08/12 01:17:07;;;;;;;9.13;8.10;;;;;;;;;;1082415;54;20461;-83
2021/08/12 01:18:11;;;;;;;12.63;8.52;;;;;;;;;;1082281;47;20916;-83
2021/08/12 01:19:31;;;;;;;9.98;9.00;;;;;;;;;;1082178;54;20952;-84
2021/08/12 01:21:05;;;;;;;11.15;8.23;;;;;;;;;;1082155;54;20385;-83
2021/08/12 01:22:07;;;;;;;10.38;8.95;;;;;;;;;;1081944;54;20369;-83
2021/08/12 01:23:10;;;;;;;9.27;8.35;;;;;;;;;;1081881;46;20358;-82
2021/08/12 01:24:13;;;;;;;9.52;8.35;;;;;;;;;;1082200;39;20777;-83
2021/08/12 01:25:22;;;;;;;10.90;8.73;;;;;;;;;;1081438;47;21246;-83
2021/08/12 01:26:24;;;;;;;9.23;7.85;;;;;;;;;;1081339;54;20392;-83
2021/08/12 01:27:29;;;;;;;10.10;8.48;;;;;;;;;;1081869;54;20407;-83
2021/08/12 01:28:36;;;;;;;10.65;9.07;;;;;;;;;;1082069;54;20389;-83
2021/08/12 01:29:47;;;;;;;9.40;8.50;;;;;;;;;;1081988;54;20360;-84
2021/08/12 01:30:56;;;;;;;9.65;8.60;;;;;;;;;;1081926;47;20357;-84
2021/08/12 01:32:04;;;;;;;10.77;8.52;;;;;;;;;;1081886;54;20385;-84
2021/08/12 01:33:24;;;;;;;10.20;8.18;;;;;;;;;;1081772;54;20369;-84
2021/08/12 01:34:36;;;;;;;10.07;8.70;;;;;;;;;;1081534;54;20407;-83
2021/08/12 01:35:38;;;;;;;10.68;8.93;;;;;;;;;;1082136;39;20718;-84
2021/08/12 01:36:40;;;;;;;12.60;8.98;;;;;;;;;;1081507;47;20381;-83
2021/08/12 01:37:48;;;;;;;10.27;8.35;;;;;;;;;;1081706;47;20373;-83
2021/08/12 01:38:50;;;;;;;10.82;8.63;;;;;;;;;;1081570;47;21416;-83
2021/08/12 01:39:52;;;;;;;10.10;8.48;;;;;;;;;;1081825;47;20373;-82
2021/08/12 01:40:55;;;;;;;10.32;8.60;;;;;;;;;;1081704;54;20399;-83
2021/08/12 01:41:58;;;;;;;9.82;8.88;;;;;;;;;;1081541;47;20379;-83
2021/08/12 01:43:02;;;;;;;10.32;7.93;;;;;;;;;;1081421;54;20362;-83
2021/08/12 01:44:05;;;;;;;9.70;8.57;;;;;;;;;;1081405;54;20376;-83
2021/08/12 01:45:06;;;;;;;10.30;8.40;;;;;;;;;;1081833;47;20484;-84
2021/08/12 01:46:08;;;;;;;12.70;9.67;;;;;;;;;;1081177;47;20420;-83
2021/08/12 01:47:13;;;;;;;9.50;8.43;;;;;;;;;;1082034;39;20734;-83
2021/08/12 01:48:14;;;;;;;13.70;8.32;;;;;;;;;;1082026;39;20767;-83
2021/08/12 01:49:18;;;;;;;10.63;8.45;;;;;;;;;;1081906;47;20357;-83
2021/08/12 01:50:20;;;;;;;10.73;8.20;;;;;;;;;;1082157;54;21297;-83
2021/08/12 01:51:25;;;;;;;8.93;8.02;;;;;;;;;;1081708;54;20943;-84
2021/08/12 01:52:28;;;;;;;11.27;8.43;;;;;;;;;;1081822;54;20408;-84
2021/08/12 01:53:31;;;;;;;10.63;8.20;;;;;;;;;;1081557;54;20369;-84
2021/08/12 01:54:34;;;;;;;8.80;7.75;;;;;;;;;;1081775;47;20404;-84
2021/08/12 01:55:35;;;;;;;12.98;8.73;;;;;;;;;;1081443;54;20370;-83
2021/08/12 01:56:37;;;;;;;10.63;9.13;;;;;;;;;;1081795;47;21197;-84
2021/08/12 01:57:40;;;;;;;9.63;8.65;;;;;;;;;;1081614;54;20861;-84
2021/08/12 01:58:42;;;;;;;8.95;8.15;;;;;;;;;;1082004;54;20399;-84
2021/08/12 01:59:44;;;;;;;8.20;7.35;;;;;;;;;;1082131;54;20405;-83
2021/08/12 02:00:49;;;;;;;12.13;8.65;;;;;;;;;;1081772;54;20415;-84
2021/08/12 02:01:53;;;;;;;9.60;8.43;;;;;;;;;;1081832;39;20781;-83
2021/08/12 02:02:55;;;;;;;9.68;8.10;;;;;;;;;;1081933;47;20418;-84
2021/08/12 02:03:58;;;;;;;10.27;8.65;;;;;;;;;;1081787;54;20381;-84
2021/08/12 02:05:00;;;;;;;10.98;8.27;;;;;;;;;;1082113;54;20374;-83
2021/08/12 02:06:02;;;;;;;8.73;7.73;;;;;;;;;;1082240;39;20847;-84
2021/08/12 02:07:05;;;;;;;9.60;8.63;;;;;;;;;;1081805;54;20936;-84
2021/08/12 02:08:07;;;;;;;9.95;8.70;;;;;;;;;;1081617;47;20385;-84
2021/08/12 02:09:08;;;;;;;8.70;7.90;;;;;;;;;;1082016;39;20806;-84
2021/08/12 02:10:11;;;;;;;9.77;7.93;;;;;;;;;;1081451;47;20464;-83
2021/08/12 02:11:13;;;;;;;10.13;8.68;;;;;;;;;;1082057;39;20741;-84
2021/08/12 02:12:14;;;;;;;11.98;8.65;;;;;;;;;;1081787;47;20365;-84
2021/08/12 02:13:16;;;;;;;9.82;8.93;;;;;;;;;;1081509;47;20365;-84
2021/08/12 02:14:17;;;;;;;11.30;8.80;;;;;;;;;;1081734;54;20357;-83
2021/08/12 02:15:19;;;;;;;12.02;8.93;;;;;;;;;;1082201;39;21097;-83
2021/08/12 02:16:21;;;;;;;12.87;8.90;;;;;;;;;;1082239;31;20842;-84
2021/08/12 02:17:22;;;;;;;14.60;8.45;;;;;;;;;;1081538;54;20373;-84
2021/08/12 02:18:24;;;;;;;11.30;8.68;;;;;;;;;;1081720;54;21307;-84
2021/08/12 02:19:26;;;;;;;9.43;7.95;;;;;;;;;;1081643;54;20377;-84
2021/08/12 02:20:28;;;;;;;9.70;8.05;;;;;;;;;;1081434;46;20370;-83
2021/08/12 02:21:34;;;;;;;10.70;8.82;;;;;;;;;;1081294;46;20385;-84
2021/08/12 02:22:38;;;;;;;9.18;8.25;;;;;;;;;;1081828;39;20789;-84
2021/08/12 02:23:52;;;;;;;13.52;8.95;;;;;;;;;;1081843;39;20796;-84
2021/08/12 02:25:08;;;;;;;12.13;8.75;;;;;;;;;;1081636;47;20377;-83
2021/08/12 02:26:12;;;;;;;10.48;8.80;;;;;;;;;;1081779;46;20369;-84
2021/08/12 02:27:17;;;;;;;11.13;8.90;;;;;;;;;;1081827;47;20472;-84
2021/08/12 02:28:20;;;;;;;12.93;9.07;;;;;;;;;;1081748;47;20452;-83
2021/08/12 02:29:21;;;;;;;9.65;8.65;;;;;;;;;;1081429;54;20377;-84
2021/08/12 02:30:23;;;;;;;11.02;9.23;;;;;;;;;;1081541;54;20389;-83
2021/08/12 02:31:25;;;;;;;11.15;9.13;;;;;;;;;;1081155;54;20389;-84
2021/08/12 02:32:28;;;;;;;11.27;9.40;;;;;;;;;;1081707;54;20361;-84
2021/08/12 02:33:32;;;;;;;9.63;8.73;;;;;;;;;;1081460;47;20376;-83
2021/08/12 02:34:35;;;;;;;12.67;8.43;;;;;;;;;;1081645;54;20453;-84
2021/08/12 02:35:37;;;;;;;11.35;8.52;;;;;;;;;;1081662;54;20407;-83
2021/08/12 02:36:40;;;;;;;9.55;8.52;;;;;;;;;;1081553;47;21259;-84
2021/08/12 02:37:42;;;;;;;9.30;8.27;;;;;;;;;;1081071;47;20373;-84
2021/08/12 02:38:45;;;;;;;9.80;8.15;;;;;;;;;;1081533;47;20369;-83
2021/08/12 02:39:47;;;;;;;10.18;7.97;;;;;;;;;;1081444;47;20561;-83
2021/08/12 02:40:52;;;;;;;8.93;7.85;;;;;;;;;;1081695;54;20377;-84
2021/08/12 02:41:55;;;;;;;10.88;8.63;;;;;;;;;;1081476;47;20386;-83
2021/08/12 02:42:58;;;;;;;11.30;8.52;;;;;;;;;;1082222;51;20400;-83
2021/08/12 02:43:59;;;;;;;11.68;9.00;;;;;;;;;;1083442;39;21113;-83
2021/08/12 02:45:01;;;;;;;12.07;8.85;;;;;;;;;;1083632;39;20810;-83
2021/08/12 02:46:03;;;;;;;13.90;9.73;;;;;;;;;;1083371;54;20460;-83
2021/08/12 02:47:05;;;;;;;11.93;9.07;;;;;;;;;;1083413;54;20384;-84
2021/08/12 02:48:10;;;;;;;10.32;7.82;;;;;;;;;;1083576;54;20399;-84
2021/08/12 02:49:13;;;;;;;10.15;8.07;;;;;;;;;;1081982;47;20353;-84
2021/08/12 02:50:14;;;;;;;9.38;7.80;;;;;;;;;;1082280;54;20381;-84
2021/08/12 02:51:17;;;;;;;11.20;8.07;;;;;;;;;;1083125;46;20377;-84
2021/08/12 02:52:19;;;;;;;10.85;8.63;;;;;;;;;;1084295;47;20444;-84
2021/08/12 02:53:21;;;;;;;9.68;8.20;;;;;;;;;;1084709;54;20381;-84
2021/08/12 02:54:22;;;;;;;10.30;8.07;;;;;;;;;;1086551;46;20386;-84
2021/08/12 02:55:26;;;;;;;8.50;7.60;;;;;;;;;;1085686;54;20403;-83
2021/08/12 02:56:27;;;;;;;10.32;8.48;;;;;;;;;;1085385;47;20376;-83
2021/08/12 02:57:29;;;;;;;9.68;8.70;;;;;;;;;;1086047;54;20377;-83
2021/08/12 02:58:32;;;;;;;13.60;9.18;;;;;;;;;;1085782;47;20391;-83
2021/08/12 02:59:34;;;;;;;10.07;8.48;;;;;;;;;;1084323;54;20931;-83
2021/08/12 03:00:37;;;;;;;11.52;9.23;;;;;;;;;;1082613;54;20373;-83
2021/08/12 03:01:39;;;;;;;10.07;9.00;;;;;;;;;;1083029;54;20369;-83
2021/08/12 03:02:47;;;;;;;10.40;9.38;;;;;;;;;;1082741;54;20373;-84
2021/08/12 03:03:50;;;;;;;11.63;9.95;;;;;;;;;;1081966;54;20412;-84
2021/08/12 03:04:52;;;;;;;13.88;9.40;;;;;;;;;;1081585;47;20369;-84
2021/08/12 03:05:55;;;;;;;10.73;8.80;;;;;;;;;;1081822;54;20391;-83
2021/08/12 03:06:58;;;;;;;10.50;9.27;;;;;;;;;;1081653;54;20362;-83
2021/08/12 03:08:00;;;;;;;10.50;8.75;;;;;;;;;;1082660;39;20831;-84
2021/08/12 03:09:02;;;;;;;12.85;9.45;;;;;;;;;;1082006;51;20378;-83
2021/08/12 03:10:04;;;;;;;13.88;8.90;;;;;;;;;;1081845;47;20407;-84
2021/08/12 03:11:08;;;;;;;10.35;8.73;;;;;;;;;;1081381;54;20378;-84
2021/08/12 03:12:09;;;;;;;11.45;8.27;;;;;;;;;;1081550;47;20924;-84
2021/08/12 03:13:11;;;;;;;11.75;8.95;;;;;;;;;;1081794;47;20404;-83
2021/08/12 03:14:13;;;;;;;13.80;10.13;;;;;;;;;;1081610;54;21257;-84
2021/08/12 03:15:15;;;;;;;11.80;9.07;;;;;;;;;;1081487;47;20388;-84
2021/08/12 03:16:17;;;;;;;11.55;9.10;;;;;;;;;;1081677;54;20412;-84
2021/08/12 03:17:20;;;;;;;12.45;9.75;;;;;;;;;;1081415;47;20987;-83
2021/08/12 03:18:21;;;;;;;11.65;9.48;;;;;;;;;;1082103;47;20381;-84
2021/08/12 03:19:25;;;;;;;13.10;9.60;;;;;;;;;;1081775;39;20797;-83
2021/08/12 03:20:29;;;;;;;9.70;8.75;;;;;;;;;;1081942;47;20365;-84
2021/08/12 03:21:31;;;;;;;10.35;9.35;;;;;;;;;;1082084;54;20381;-84
2021/08/12 03:22:33;;;;;;;10.30;9.15;;;;;;;;;;1082069;47;20365;-83
2021/08/12 03:23:35;;;;;;;13.00;9.68;;;;;;;;;;1081242;54;20357;-84
2021/08/12 03:24:37;;;;;;;13.07;10.18;;;;;;;;;;1081721;47;20374;-83
2021/08/12 03:25:39;;;;;;;15.55;10.75;;;;;;;;;;1081552;47;20391;-83
2021/08/12 03:26:40;;;;;;;14.93;10.88;;;;;;;;;;1082023;47;20369;-84
2021/08/12 03:27:42;;;;;;;15.40;11.00;;;;;;;;;;1081549;47;20377;-84
2021/08/12 03:28:43;;;;;;;15.00;10.87;;;;;;;;;;1081792;54;20408;-83
2021/08/12 03:29:46;;;;;;;12.38;11.18;;;;;;;;;;1082211;47;20921;-84
2021/08/12 03:30:47;;;;;;;13.40;11.20;;;;;;;;;;1082069;47;20385;-83
2021/08/12 03:31:49;;;;;;;15.73;10.88;;;;;;;;;;1082059;54;20407;-84
2021/08/12 03:32:50;;;;;;;14.55;10.43;;;;;;;;;;1082899;47;20373;-84
2021/08/12 03:33:52;;;;;;;13.00;10.93;;;;;;;;;;1085155;54;20385;-84
2021/08/12 03:34:54;;;;;;;12.43;10.45;;;;;;;;;;1086487;47;20391;-84
2021/08/12 03:35:55;;;;;;;14.30;11.73;;;;;;;;;;1086806;47;20353;-83
2021/08/12 03:36:57;;;;;;;12.63;10.95;;;;;;;;;;1086852;54;20443;-84
2021/08/12 03:37:59;;;;;;;13.60;10.68;;;;;;;;;;1085723;54;20437;-83
2021/08/12 03:39:00;;;;;;;11.52;10.32;;;;;;;;;;1085125;47;20381;-83
2021/08/12 03:40:02;;;;;;;15.77;11.93;;;;;;;;;;1086333;54;20369;-83
2021/08/12 03:41:04;;;;;;;13.10;11.80;;;;;;;;;;1087023;54;20357;-85
2021/08/12 03:42:06;;;;;;;13.40;11.75;;;;;;;;;;1087255;54;20349;-83
2021/08/12 03:43:08;;;;;;;13.82;11.95;;;;;;;;;;1086955;50;20441;-83
2021/08/12 03:44:09;;;;;;;13.80;11.73;;;;;;;;;;1086242;54;20437;-83
2021/08/12 03:45:11;;;;;;;15.40;12.10;;;;;;;;;;1085555;51;20369;-83
2021/08/12 03:46:12;;;;;;;16.60;11.55;;;;;;;;;;1085439;54;20400;-83
2021/08/12 03:47:14;;;;;;;14.77;11.75;;;;;;;;;;1083322;47;20421;-84
2021/08/12 03:48:16;;;;;;;16.58;11.68;;;;;;;;;;1082495;54;20353;-84
2021/08/12 03:49:18;;;;;;;15.33;11.57;;;;;;;;;;1082293;54;20451;-84
2021/08/12 03:50:19;;;;;;;14.88;11.88;;;;;;;;;;1082208;54;20377;-83
2021/08/12 03:51:21;;;;;;;15.07;11.43;;;;;;;;;;1081896;47;20369;-84
2021/08/12 03:52:23;;;;;;;14.68;12.48;;;;;;;;;;1082083;39;20780;-84
2021/08/12 03:53:24;;;;;;;15.88;11.35;;;;;;;;;;1081853;47;20377;-83
2021/08/12 03:54:26;;;;;;;13.75;11.82;;;;;;;;;;1081848;54;20400;-84
2021/08/12 03:55:27;;;;;;;12.68;11.02;;;;;;;;;;1081613;47;21026;-84
2021/08/12 03:56:29;;;;;;;12.32;10.88;;;;;;;;;;1082098;39;20742;-84
2021/08/12 03:57:30;;;;;;;16.17;11.20;;;;;;;;;;1081436;54;20370;-84
2021/08/12 03:58:32;;;;;;;14.10;11.45;;;;;;;;;;1081248;54;20392;-84
2021/08/12 03:59:34;;;;;;;12.35;11.07;;;;;;;;;;1081640;54;20411;-84
2021/08/12 04:00:35;;;;;;;12.10;10.90;;;;;;;;;;1081498;46;20383;-84
2021/08/12 04:01:37;;;;;;;13.20;11.23;;;;;;;;;;1081633;47;20373;-84
2021/08/12 04:02:39;;;;;;;14.73;10.73;;;;;;;;;;1081588;54;20460;-85
2021/08/12 04:03:41;;;;;;;12.93;11.63;;;;;;;;;;1081568;54;20443;-85
2021/08/12 04:04:42;;;;;;;12.27;10.98;;;;;;;;;;1081478;54;20409;-84
2021/08/12 04:05:44;;;;;;;13.70;11.45;;;;;;;;;;1081654;54;20473;-83
2021/08/12 04:06:45;;;;;;;15.65;12.13;;;;;;;;;;1081435;47;20408;-84
2021/08/12 04:07:47;;;;;;;12.77;11.48;;;;;;;;;;1081340;54;20353;-84
2021/08/12 04:08:53;;;;;;;11.70;10.70;;;;;;;;;;1081587;39;20745;-84
2021/08/12 04:09:55;;;;;;;14.98;11.98;;;;;;;;;;1081670;54;20362;-84
2021/08/12 04:10:56;;;;;;;15.45;11.75;;;;;;;;;;1081136;47;20377;-83
2021/08/12 04:11:58;;;;;;;14.27;11.55;;;;;;;;;;1081289;54;20458;-84
2021/08/12 04:12:59;;;;;;;14.38;12.52;;;;;;;;;;1081615;39;20770;-83
2021/08/12 04:14:01;;;;;;;13.07;11.68;;;;;;;;;;1081297;54;20399;-84
2021/08/12 04:15:03;;;;;;;16.67;12.85;;;;;;;;;;1081740;47;20361;-82
2021/08/12 04:16:06;;;;;;;15.05;12.30;;;;;;;;;;1081476;47;20484;-84
2021/08/12 04:17:08;;;;;;;16.05;12.35;;;;;;;;;;1081582;54;20395;-84
2021/08/12 04:18:09;;;;;;;15.52;12.68;;;;;;;;;;1081054;54;20391;-84
2021/08/12 04:19:12;;;;;;;14.95;12.95;;;;;;;;;;1081537;54;20394;-84
2021/08/12 04:20:14;;;;;;;14.85;12.27;;;;;;;;;;1081592;54;20387;-84
2021/08/12 04:21:15;;;;;;;13.68;12.13;;;;;;;;;;1081263;39;21552;-83
2021/08/12 04:22:17;;;;;;;13.15;11.77;;;;;;;;;;1081149;47;20358;-85
2021/08/12 04:23:18;;;;;;;13.77;11.80;;;;;;;;;;1081194;47;20384;-83
2021/08/12 04:24:20;;;;;;;13.05;11.63;;;;;;;;;;1082043;54;20418;-84
2021/08/12 04:25:22;;;;;;;14.57;11.20;;;;;;;;;;1081445;47;20373;-83
2021/08/12 04:26:29;;;;;;;15.45;11.50;;;;;;;;;;1081471;54;20385;-84
2021/08/12 04:27:31;;;;;;;13.18;11.88;;;;;;;;;;1081638;47;20377;-84
2021/08/12 04:28:32;;;;;;;12.68;11.27;;;;;;;;;;1081606;54;20393;-84
2021/08/12 04:29:36;;;;;;;13.77;12.45;;;;;;;;;;1081524;54;20391;-84
2021/08/12 04:30:38;;;;;;;16.58;11.70;;;;;;;;;;1081499;54;20381;-83
2021/08/12 04:31:40;;;;;;;15.02;11.60;;;;;;;;;;1081357;54;20377;-83
2021/08/12 04:32:42;;;;;;;13.27;11.43;;;;;;;;;;1081222;54;20403;-85
2021/08/12 04:33:43;;;;;;;12.65;11.35;;;;;;;;;;1081393;54;20408;-84
2021/08/12 04:34:45;;;;;;;14.50;11.98;;;;;;;;;;1081818;54;20935;-84
2021/08/12 04:35:47;;;;;;;13.35;11.95;;;;;;;;;;1081661;54;21246;-84
2021/08/12 04:36:48;;;;;;;16.83;12.32;;;;;;;;;;1081184;54;21058;-84
2021/08/12 04:37:50;;;;;;;13.93;12.53;;;;;;;;;;1081535;54;20456;-84
2021/08/12 04:38:52;;;;;;;13.02;11.23;;;;;;;;;;1081460;47;20365;-84
2021/08/12 04:39:53;;;;;;;16.50;12.27;;;;;;;;;;1081542;54;20369;-85
2021/08/12 04:40:55;;;;;;;15.05;12.10;;;;;;;;;;1081342;54;20461;-84
2021/08/12 04:41:56;;;;;;;12.70;11.35;;;;;;;;;;1081065;54;20400;-83
2021/08/12 04:43:01;;;;;;;15.32;12.60;;;;;;;;;;1081049;54;20377;-84
2021/08/12 04:44:03;;;;;;;15.18;12.65;;;;;;;;;;1081852;54;20404;-84
2021/08/12 04:45:05;;;;;;;15.45;12.43;;;;;;;;;;1081354;54;20913;-84
2021/08/12 04:46:06;;;;;;;14.20;12.10;;;;;;;;;;1081110;47;20407;-83
2021/08/12 04:47:08;;;;;;;13.88;12.13;;;;;;;;;;1081186;54;20612;-83
2021/08/12 04:48:10;;;;;;;13.35;11.95;;;;;;;;;;1080970;47;20386;-84
2021/08/12 04:49:12;;;;;;;15.15;12.63;;;;;;;;;;1081954;39;20796;-84
2021/08/12 04:50:14;;;;;;;15.00;12.85;;;;;;;;;;1081316;54;20377;-84
2021/08/12 04:51:16;;;;;;;15.82;12.65;;;;;;;;;;1081902;39;20735;-84
2021/08/12 04:52:18;;;;;;;13.80;12.40;;;;;;;;;;1081350;47;20408;-83
2021/08/12 04:53:19;;;;;;;14.85;11.85;;;;;;;;;;1081635;47;20369;-84
2021/08/12 04:54:21;;;;;;;12.80;11.50;;;;;;;;;;1081546;54;20379;-83
2021/08/12 04:55:23;;;;;;;16.05;12.48;;;;;;;;;;1081652;54;20381;-84
2021/08/12 04:56:24;;;;;;;13.57;12.18;;;;;;;;;;1081404;47;21270;-84
2021/08/12 04:57:26;;;;;;;14.85;13.02;;;;;;;;;;1081557;46;20924;-84
2021/08/12 04:58:27;;;;;;;17.13;14.52;;;;;;;;;;1081624;54;20504;-84
2021/08/12 04:59:29;;;;;;;16.63;13.73;;;;;;;;;;1081575;54;20424;-84
2021/08/12 05:00:31;;;;;;;20.88;15.23;;;;;;;;;;1081698;47;20376;-84
2021/08/12 05:01:32;;;;;;;19.88;14.30;;;;;;;;;;1081448;54;20390;-84
2021/08/12 05:02:34;;;;;;;17.67;14.63;;;;;;;;;;1081761;54;20413;-84
2021/08/12 05:03:36;;;;;;;18.55;15.55;;;;;;;;;;1081549;54;20364;-84
2021/08/12 05:04:38;;;;;;;19.25;15.35;;;;;;;;;;1081992;54;20388;-83
2021/08/12 05:05:39;;;;;;;19.65;16.05;;;;;;;;;;1081828;54;20496;-84
2021/08/12 05:06:41;;;;;;;20.42;15.27;;;;;;;;;;1081503;54;20412;-84
2021/08/12 05:07:43;;;;;;;18.50;15.88;;;;;;;;;;1081951;54;20369;-84
2021/08/12 05:08:45;;;;;;;18.65;15.32;;;;;;;;;;1081993;54;20472;-84
2021/08/12 05:09:46;;;;;;;18.70;15.73;;;;;;;;;;1081720;47;20361;-84
2021/08/12 05:10:48;;;;;;;20.00;15.05;;;;;;;;;;1081445;54;20373;-84
2021/08/12 05:11:49;;;;;;;19.00;14.80;;;;;;;;;;1081621;54;20391;-83
2021/08/12 05:12:51;;;;;;;21.52;15.23;;;;;;;;;;1081973;47;20369;-84
2021/08/12 05:13:53;;;;;;;19.87;16.20;;;;;;;;;;1081785;47;20472;-84
2021/08/12 05:14:56;;;;;;;21.38;16.27;;;;;;;;;;1081705;54;20383;-84
2021/08/12 05:15:59;;;;;;;20.20;15.93;;;;;;;;;;1081532;54;20365;-84
2021/08/12 05:17:00;;;;;;;18.00;15.35;;;;;;;;;;1082244;54;20483;-84
2021/08/12 05:18:02;;;;;;;20.08;16.13;;;;;;;;;;1081501;47;20385;-83
2021/08/12 05:19:04;;;;;;;17.77;15.88;;;;;;;;;;1082182;39;20772;-83
2021/08/12 05:20:05;;;;;;;20.58;16.13;;;;;;;;;;1081843;54;20401;-84
2021/08/12 05:21:07;;;;;;;21.13;15.55;;;;;;;;;;1081542;54;20946;-84
2021/08/12 05:22:09;;;;;;;22.73;17.40;;;;;;;;;;1081551;54;20369;-84
2021/08/12 05:23:11;;;;;;;20.77;16.73;;;;;;;;;;1081591;54;20948;-83
2021/08/12 05:24:13;;;;;;;20.52;16.88;;;;;;;;;;1081875;54;20357;-84
2021/08/12 05:25:15;;;;;;;21.27;17.42;;;;;;;;;;1081726;54;20372;-84
2021/08/12 05:26:16;;;;;;;24.60;18.50;;;;;;;;;;1081685;54;20384;-84
2021/08/12 05:27:18;;;;;;;23.00;19.25;;;;;;;;;;1083852;54;20403;-84
2021/08/12 05:28:20;;;;;;;22.15;17.65;;;;;;;;;;1085123;50;20369;-83
2021/08/12 05:29:21;;;;;;;23.15;19.08;;;;;;;;;;1085466;54;20440;-85
2021/08/12 05:30:23;;;;;;;29.08;20.10;;;;;;;;;;1086215;54;20379;-83
2021/08/12 05:31:25;;;;;;;25.42;18.00;;;;;;;;;;1086327;54;21011;-84
2021/08/12 05:32:26;;;;;;;20.93;17.37;;;;;;;;;;1086799;47;20361;-84
2021/08/12 05:33:28;;;;;;;20.90;18.17;;;;;;;;;;1086967;47;20415;-82
2021/08/12 05:34:30;;;;;;;25.52;18.98;;;;;;;;;;1085962;47;20376;-83
2021/08/12 05:35:31;;;;;;;25.38;18.95;;;;;;;;;;1083930;54;20888;-84
2021/08/12 05:36:33;;;;;;;25.58;18.48;;;;;;;;;;1083892;47;20441;-84
2021/08/12 05:37:34;;;;;;;28.65;19.27;;;;;;;;;;1083731;50;20388;-84
2021/08/12 05:38:36;;;;;;;25.33;18.50;;;;;;;;;;1083035;47;20392;-84
2021/08/12 05:39:37;;;;;;;25.58;19.08;;;;;;;;;;1082789;47;20919;-84
2021/08/12 05:40:39;;;;;;;24.45;19.02;;;;;;;;;;1082920;54;20912;-84
2021/08/12 05:41:41;;;;;;;23.95;18.05;;;;;;;;;;1083081;54;20390;-84
2021/08/12 05:42:42;;;;;;;22.50;18.45;;;;;;;;;;1082503;54;20924;-84
2021/08/12 05:43:44;;;;;;;24.90;19.92;;;;;;;;;;1082738;54;20369;-84
2021/08/12 05:44:46;;;;;;;20.13;17.05;;;;;;;;;;1083075;54;20369;-84
2021/08/12 05:45:50;;;;;;;24.20;19.95;;;;;;;;;;1082225;47;20366;-84
2021/08/12 05:46:52;;;;;;;24.83;19.70;;;;;;;;;;1082050;47;20377;-84
2021/08/12 05:47:53;;;;;;;24.15;19.00;;;;;;;;;;1082161;47;20441;-84
2021/08/12 05:48:55;;;;;;;21.02;18.70;;;;;;;;;;1081615;54;20375;-84
2021/08/12 05:49:56;;;;;;;25.88;19.20;;;;;;;;;;1081516;47;20377;-84
2021/08/12 05:50:58;;;;;;;28.08;21.27;;;;;;;;;;1081832;47;20920;-84
2021/08/12 05:51:59;;;;;;;23.73;19.42;;;;;;;;;;1082590;39;20812;-83
2021/08/12 05:53:01;;;;;;;22.20;18.75;;;;;;;;;;1082196;39;20833;-84
2021/08/12 05:54:03;;;;;;;24.42;19.63;;;;;;;;;;1082040;54;20358;-84
2021/08/12 05:55:05;;;;;;;25.63;18.42;;;;;;;;;;1081626;46;20404;-84
2021/08/12 05:56:06;;;;;;;23.58;20.27;;;;;;;;;;1081542;54;20385;-84
2021/08/12 05:57:08;;;;;;;26.42;19.13;;;;;;;;;;1081838;47;20399;-84
2021/08/12 05:58:10;;;;;;;25.40;18.70;;;;;;;;;;1082019;54;20404;-84
2021/08/12 05:59:11;;;;;;;24.50;18.67;;;;;;;;;;1082020;54;20377;-83
2021/08/12 06:00:13;;;;;;;23.17;19.48;;;;;;;;;;1082386;47;20901;-84
2021/08/12 06:01:15;;;;;;;25.08;18.80;;;;;;;;;;1081896;54;20912;-84
2021/08/12 06:02:17;;;;;;;26.88;19.20;;;;;;;;;;1081790;54;20369;-83
2021/08/12 06:03:18;;;;;;;25.00;19.38;;;;;;;;;;1082416;39;20867;-84
2021/08/12 06:04:20;;;;;;;23.83;19.90;;;;;;;;;;1082113;54;20476;-84
2021/08/12 06:05:21;;;;;;;23.33;19.08;;;;;;;;;;1082051;47;20950;-83
2021/08/12 06:06:23;;;;;;;19.98;17.90;;;;;;;;;;1082226;54;20399;-84
2021/08/12 06:07:25;;;;;;;24.70;20.10;;;;;;;;;;1082246;54;20399;-84
2021/08/12 06:08:26;;;;;;;22.17;18.50;;;;;;;;;;1081615;54;20361;-83
2021/08/12 06:09:28;;;;;;;24.02;18.77;;;;;;;;;;1082021;51;20373;-84